sensor_id;sensor_type;location;lat;lon;timestamp;pressure;altitude;pressure_sealevel;temperature;humidity
77047;BME280;65977;56.380;44.022;2023-04-08T00:00:48;102212.78;;;1.98;40.14
77047;BME280;65977;56.380;44.022;2023-04-08T00:03:15;102213.66;;;1.97;40.15
77047;BME280;65977;56.380;44.022;2023-04-08T00:05:42;102211.13;;;1.93;40.82
77047;BME280;65977;56.380;44.022;2023-04-08T00:08:10;102207.00;;;1.85;41.03
77047;BME280;65977;56.380;44.022;2023-04-08T00:10:37;102213.91;;;1.86;40.62
77047;BME280;65977;56.380;44.022;2023-04-08T00:13:04;102214.00;;;1.83;41.15
77047;BME280;65977;56.380;44.022;2023-04-08T00:15:31;102214.06;;;1.80;41.08
77047;BME280;65977;56.380;44.022;2023-04-08T00:17:58;102208.88;;;1.78;41.19
77047;BME280;65977;56.380;44.022;2023-04-08T00:20:25;102211.56;;;1.75;41.18
77047;BME280;65977;56.380;44.022;2023-04-08T00:22:52;102217.72;;;1.73;41.21
77047;BME280;65977;56.380;44.022;2023-04-08T00:25:19;102215.16;;;1.70;41.12
77047;BME280;65977;56.380;44.022;2023-04-08T00:27:49;102215.25;;;1.65;41.63
77047;BME280;65977;56.380;44.022;2023-04-08T00:30:16;102221.38;;;1.64;41.65
77047;BME280;65977;56.380;44.022;2023-04-08T00:32:43;102222.28;;;1.62;41.49
77047;BME280;65977;56.380;44.022;2023-04-08T00:35:11;102224.09;;;1.58;41.30
77047;BME280;65977;56.380;44.022;2023-04-08T00:37:39;102221.53;;;1.57;42.08
77047;BME280;65977;56.380;44.022;2023-04-08T00:40:06;102215.59;;;1.50;41.97
77047;BME280;65977;56.380;44.022;2023-04-08T00:42:34;102220.78;;;1.52;41.33
77047;BME280;65977;56.380;44.022;2023-04-08T00:45:01;102207.00;;;1.45;41.40
77047;BME280;65977;56.380;44.022;2023-04-08T00:47:28;102220.03;;;1.45;42.15
77047;BME280;65977;56.380;44.022;2023-04-08T00:49:56;102222.69;;;1.44;41.81
77047;BME280;65977;56.380;44.022;2023-04-08T00:52:23;102203.03;;;1.29;41.77
77047;BME280;65977;56.380;44.022;2023-04-08T00:54:50;102223.66;;;1.40;41.81
77047;BME280;65977;56.380;44.022;2023-04-08T00:57:17;102221.97;;;1.37;42.40
77047;BME280;65977;56.380;44.022;2023-04-08T00:59:44;102222.03;;;1.34;42.24
77047;BME280;65977;56.380;44.022;2023-04-08T01:02:16;102226.41;;;1.32;42.42
77047;BME280;65977;56.380;44.022;2023-04-08T01:04:56;102219.53;;;1.28;42.71
77047;BME280;65977;56.380;44.022;2023-04-08T01:07:37;102217.88;;;1.25;42.82
77047;BME280;65977;56.380;44.022;2023-04-08T01:10:12;102221.38;;;1.23;42.37
77047;BME280;65977;56.380;44.022;2023-04-08T01:12:46;102220.56;;;1.21;42.63
77047;BME280;65977;56.380;44.022;2023-04-08T01:15:14;102222.38;;;1.17;42.28
77047;BME280;65977;56.380;44.022;2023-04-08T01:17:42;102225.00;;;1.16;42.58
77047;BME280;65977;56.380;44.022;2023-04-08T01:20:12;102218.16;;;1.10;42.29
77047;BME280;65977;56.380;44.022;2023-04-08T01:25:15;102222.56;;;1.08;42.75
77047;BME280;65977;56.380;44.022;2023-04-08T01:27:43;102221.75;;;1.05;43.02
77047;BME280;65977;56.380;44.022;2023-04-08T01:30:11;102230.47;;;1.02;43.06
77047;BME280;65977;56.380;44.022;2023-04-08T01:32:39;102226.19;;;1.01;42.73
77047;BME280;65977;56.380;44.022;2023-04-08T01:35:08;102220.22;;;0.95;42.93
77047;BME280;65977;56.380;44.022;2023-04-08T01:37:36;102227.16;;;0.96;43.57
77047;BME280;65977;56.380;44.022;2023-04-08T01:40:06;102228.06;;;0.92;43.58
77047;BME280;65977;56.380;44.022;2023-04-08T01:42:35;102229.84;;;0.90;43.47
77047;BME280;65977;56.380;44.022;2023-04-08T01:45:03;102230.78;;;0.87;43.00
77047;BME280;65977;56.380;44.022;2023-04-08T01:47:31;102228.22;;;0.84;43.30
77047;BME280;65977;56.380;44.022;2023-04-08T01:50:00;102235.22;;;0.82;43.17
77047;BME280;65977;56.380;44.022;2023-04-08T01:52:29;102229.13;;;0.82;43.72
77047;BME280;65977;56.380;44.022;2023-04-08T01:54:56;102230.06;;;0.79;43.90
77047;BME280;65977;56.380;44.022;2023-04-08T01:57:27;102235.28;;;0.78;43.53
77047;BME280;65977;56.380;44.022;2023-04-08T01:59:59;102236.22;;;0.75;43.75
77047;BME280;65977;56.380;44.022;2023-04-08T02:02:31;102232.75;;;0.75;43.47
77047;BME280;65977;56.380;44.022;2023-04-08T02:04:59;102227.59;;;0.73;43.45
77047;BME280;65977;56.380;44.022;2023-04-08T02:07:27;102238.91;;;0.71;43.65
77047;BME280;65977;56.380;44.022;2023-04-08T02:09:55;102244.97;;;0.70;43.50
77047;BME280;65977;56.380;44.022;2023-04-08T02:12:22;102239.78;;;0.70;43.80
77047;BME280;65977;56.380;44.022;2023-04-08T02:14:49;102241.50;;;0.69;44.05
77047;BME280;65977;56.380;44.022;2023-04-08T02:17:22;102234.66;;;0.65;43.77
77047;BME280;65977;56.380;44.022;2023-04-08T02:22:39;102244.97;;;0.71;43.56
77047;BME280;65977;56.380;44.022;2023-04-08T02:25:12;102254.47;;;0.74;44.03
77047;BME280;65977;56.380;44.022;2023-04-08T02:27:40;102252.69;;;0.74;44.00
77047;BME280;65977;56.380;44.022;2023-04-08T02:30:10;102253.56;;;0.76;43.72
77047;BME280;65977;56.380;44.022;2023-04-08T02:32:38;102254.38;;;0.78;44.03
77047;BME280;65977;56.380;44.022;2023-04-08T02:35:06;102252.59;;;0.80;44.02
77047;BME280;65977;56.380;44.022;2023-04-08T02:37:35;102256.03;;;0.82;43.74
77047;BME280;65977;56.380;44.022;2023-04-08T02:40:02;102259.41;;;0.87;43.62
77047;BME280;65977;56.380;44.022;2023-04-08T02:42:30;102257.59;;;0.91;43.47
77047;BME280;65977;56.380;44.022;2023-04-08T02:44:57;102252.31;;;0.95;43.96
77047;BME280;65977;56.380;44.022;2023-04-08T02:47:24;102252.25;;;0.98;43.62
77047;BME280;65977;56.380;44.022;2023-04-08T02:49:51;102259.06;;;1.05;43.55
77047;BME280;65977;56.380;44.022;2023-04-08T02:52:19;102252.06;;;1.09;43.65
77047;BME280;65977;56.380;44.022;2023-04-08T02:54:46;102257.97;;;1.17;43.71
77047;BME280;65977;56.380;44.022;2023-04-08T02:57:13;102258.69;;;1.23;43.61
77047;BME280;65977;56.380;44.022;2023-04-08T02:59:40;102256.81;;;1.32;42.96
77047;BME280;65977;56.380;44.022;2023-04-08T03:02:07;102255.75;;;1.40;42.78
77047;BME280;65977;56.380;44.022;2023-04-08T03:04:34;102256.44;;;1.48;42.76
77047;BME280;65977;56.380;44.022;2023-04-08T03:07:02;102254.53;;;1.56;42.83
77047;BME280;65977;56.380;44.022;2023-04-08T03:09:29;102259.53;;;1.65;42.41
77047;BME280;65977;56.380;44.022;2023-04-08T03:11:56;102253.28;;;1.74;42.58
77047;BME280;65977;56.380;44.022;2023-04-08T03:14:23;102260.00;;;1.84;42.67
77047;BME280;65977;56.380;44.022;2023-04-08T03:16:50;102258.03;;;1.95;42.17
77047;BME280;65977;56.380;44.022;2023-04-08T03:19:17;102251.72;;;2.05;42.11
77047;BME280;65977;56.380;44.022;2023-04-08T03:21:44;102256.63;;;2.17;42.09
77047;BME280;65977;56.380;44.022;2023-04-08T03:24:11;102265.00;;;2.31;41.20
77047;BME280;65977;56.380;44.022;2023-04-08T03:26:38;102258.56;;;2.44;40.98
77047;BME280;65977;56.380;44.022;2023-04-08T03:29:05;102256.47;;;2.59;41.10
77047;BME280;65977;56.380;44.022;2023-04-08T03:31:32;102260.38;;;2.76;41.18
77047;BME280;65977;56.380;44.022;2023-04-08T03:34:00;102259.00;;;2.94;40.55
77047;BME280;65977;56.380;44.022;2023-04-08T03:36:27;102260.22;;;3.13;40.41
77047;BME280;65977;56.380;44.022;2023-04-08T03:38:54;102260.63;;;3.30;40.25
77047;BME280;65977;56.380;44.022;2023-04-08T03:41:21;102266.88;;;3.54;39.92
77047;BME280;65977;56.380;44.022;2023-04-08T03:43:48;102266.31;;;3.73;39.38
77047;BME280;65977;56.380;44.022;2023-04-08T03:46:15;102263.03;;;3.95;38.84
77047;BME280;65977;56.380;44.022;2023-04-08T03:48:42;102268.50;;;4.15;39.13
77047;BME280;65977;56.380;44.022;2023-04-08T03:51:09;102268.72;;;4.35;38.76
77047;BME280;65977;56.380;44.022;2023-04-08T03:53:36;102262.78;;;4.56;38.39
77047;BME280;65977;56.380;44.022;2023-04-08T03:56:03;102262.16;;;4.74;37.61
77047;BME280;65977;56.380;44.022;2023-04-08T03:58:30;102262.38;;;4.93;37.50
77047;BME280;65977;56.380;44.022;2023-04-08T04:00:58;102267.78;;;5.13;37.14
77047;BME280;65977;56.380;44.022;2023-04-08T04:03:25;102276.63;;;5.34;36.62
77047;BME280;65977;56.380;44.022;2023-04-08T04:05:53;102269.78;;;5.53;36.49
77047;BME280;65977;56.380;44.022;2023-04-08T04:08:20;102263.88;;;5.71;35.86
77047;BME280;65977;56.380;44.022;2023-04-08T04:10:47;102263.19;;;5.89;35.24
77047;BME280;65977;56.380;44.022;2023-04-08T04:13:14;102267.34;;;6.16;35.48
77047;BME280;65977;56.380;44.022;2023-04-08T04:15:41;102266.06;;;6.48;35.01
77047;BME280;65977;56.380;44.022;2023-04-08T04:18:08;102262.25;;;6.95;34.58
77047;BME280;65977;56.380;44.022;2023-04-08T04:20:39;102266.00;;;7.86;34.19
77047;BME280;65977;56.380;44.022;2023-04-08T04:23:08;102260.19;;;9.99;31.22
77047;BME280;65977;56.380;44.022;2023-04-08T04:25:35;102248.47;;;14.45;25.21
77047;BME280;65977;56.380;44.022;2023-04-08T04:28:02;102245.22;;;18.43;20.25
77047;BME280;65977;56.380;44.022;2023-04-08T04:30:29;102242.69;;;21.81;16.51
77047;BME280;65977;56.380;44.022;2023-04-08T04:32:56;102232.09;;;24.64;14.50
77047;BME280;65977;56.380;44.022;2023-04-08T04:35:23;102234.72;;;27.10;12.47
77047;BME280;65977;56.380;44.022;2023-04-08T04:37:50;102235.72;;;29.10;10.94
77047;BME280;65977;56.380;44.022;2023-04-08T04:40:18;102236.50;;;30.88;9.78
77047;BME280;65977;56.380;44.022;2023-04-08T04:42:45;102241.47;;;32.36;8.77
77047;BME280;65977;56.380;44.022;2023-04-08T04:45:12;102244.84;;;33.65;7.81
77047;BME280;65977;56.380;44.022;2023-04-08T04:47:39;102243.03;;;34.72;6.88
77047;BME280;65977;56.380;44.022;2023-04-08T04:50:07;102238.91;;;35.68;6.63
77047;BME280;65977;56.380;44.022;2023-04-08T04:52:35;102244.81;;;36.57;6.45
77047;BME280;65977;56.380;44.022;2023-04-08T04:55:02;102241.78;;;37.32;5.95
77047;BME280;65977;56.380;44.022;2023-04-08T04:57:30;102237.59;;;37.91;5.19
77047;BME280;65977;56.380;44.022;2023-04-08T04:59:57;102249.31;;;38.49;5.53
77047;BME280;65977;56.380;44.022;2023-04-08T05:02:25;102244.59;;;38.95;4.69
77047;BME280;65977;56.380;44.022;2023-04-08T05:04:52;102251.66;;;39.41;4.38
77047;BME280;65977;56.380;44.022;2023-04-08T05:07:21;102248.38;;;39.93;4.37
77047;BME280;65977;56.380;44.022;2023-04-08T05:09:48;102250.78;;;40.44;4.08
77047;BME280;65977;56.380;44.022;2023-04-08T05:12:15;102260.78;;;40.78;4.11
77047;BME280;65977;56.380;44.022;2023-04-08T05:14:42;102256.31;;;41.11;3.72
77047;BME280;65977;56.380;44.022;2023-04-08T05:17:09;102259.78;;;41.45;3.49
77047;BME280;65977;56.380;44.022;2023-04-08T05:19:36;102256.88;;;41.79;3.71
77047;BME280;65977;56.380;44.022;2023-04-08T05:22:03;102258.16;;;42.05;3.68
77047;BME280;65977;56.380;44.022;2023-04-08T05:24:31;102265.44;;;42.20;3.19
77047;BME280;65977;56.380;44.022;2023-04-08T05:26:58;102260.00;;;42.47;3.11
77047;BME280;65977;56.380;44.022;2023-04-08T05:29:25;102262.25;;;42.64;3.20
77047;BME280;65977;56.380;44.022;2023-04-08T05:31:52;102261.75;;;42.75;3.01
77047;BME280;65977;56.380;44.022;2023-04-08T05:34:19;102259.88;;;42.85;2.88
77047;BME280;65977;56.380;44.022;2023-04-08T05:36:49;102266.94;;;42.96;2.83
77047;BME280;65977;56.380;44.022;2023-04-08T05:39:19;102268.63;;;43.24;2.88
77047;BME280;65977;56.380;44.022;2023-04-08T05:41:46;102264.63;;;43.44;2.73
77047;BME280;65977;56.380;44.022;2023-04-08T05:44:13;102259.44;;;43.51;2.61
77047;BME280;65977;56.380;44.022;2023-04-08T05:46:40;102259.56;;;43.73;2.49
77047;BME280;65977;56.380;44.022;2023-04-08T05:49:08;102266.16;;;43.99;2.07
77047;BME280;65977;56.380;44.022;2023-04-08T05:51:36;102259.91;;;44.29;2.49
77047;BME280;65977;56.380;44.022;2023-04-08T05:54:03;102260.47;;;44.62;2.21
77047;BME280;65977;56.380;44.022;2023-04-08T05:56:34;102262.38;;;44.84;1.99
77047;BME280;65977;56.380;44.022;2023-04-08T05:59:01;102262.81;;;44.99;1.85
77047;BME280;65977;56.380;44.022;2023-04-08T06:01:28;102254.78;;;44.98;2.20
77047;BME280;65977;56.380;44.022;2023-04-08T06:03:56;102268.09;;;45.09;1.92
77047;BME280;65977;56.380;44.022;2023-04-08T06:06:23;102261.41;;;45.10;1.92
77047;BME280;65977;56.380;44.022;2023-04-08T06:08:54;102270.94;;;45.18;1.58
77047;BME280;65977;56.380;44.022;2023-04-08T06:11:21;102277.75;;;45.34;2.13
77047;BME280;65977;56.380;44.022;2023-04-08T06:13:48;102270.06;;;45.48;2.07
77047;BME280;65977;56.380;44.022;2023-04-08T06:16:16;102262.88;;;45.64;1.39
77047;BME280;65977;56.380;44.022;2023-04-08T06:18:46;102272.78;;;45.79;1.82
77047;BME280;65977;56.380;44.022;2023-04-08T06:21:14;102269.81;;;45.84;1.51
77047;BME280;65977;56.380;44.022;2023-04-08T06:23:41;102265.72;;;45.82;1.60
77047;BME280;65977;56.380;44.022;2023-04-08T06:26:09;102269.84;;;46.01;1.26
77047;BME280;65977;56.380;44.022;2023-04-08T06:28:36;102259.63;;;46.31;0.85
77047;BME280;65977;56.380;44.022;2023-04-08T06:31:03;102258.81;;;46.48;1.08
77047;BME280;65977;56.380;44.022;2023-04-08T06:33:31;102264.69;;;46.63;1.46
77047;BME280;65977;56.380;44.022;2023-04-08T06:36:04;102254.63;;;46.71;1.40
77047;BME280;65977;56.380;44.022;2023-04-08T06:38:32;102254.13;;;46.77;1.14
77047;BME280;65977;56.380;44.022;2023-04-08T06:41:06;102261.69;;;46.85;0.97
77047;BME280;65977;56.380;44.022;2023-04-08T06:43:34;102266.25;;;46.98;0.64
77047;BME280;65977;56.380;44.022;2023-04-08T06:46:02;102254.03;;;47.12;0.91
77047;BME280;65977;56.380;44.022;2023-04-08T06:48:29;102262.31;;;47.29;0.60
77047;BME280;65977;56.380;44.022;2023-04-08T06:50:57;102254.34;;;47.39;0.36
77047;BME280;65977;56.380;44.022;2023-04-08T06:53:26;102256.38;;;47.59;0.53
77047;BME280;65977;56.380;44.022;2023-04-08T06:55:55;102270.31;;;47.68;0.82
77047;BME280;65977;56.380;44.022;2023-04-08T06:58:22;102253.38;;;47.65;0.47
77047;BME280;65977;56.380;44.022;2023-04-08T07:00:49;102269.06;;;47.28;0.45
77047;BME280;65977;56.380;44.022;2023-04-08T07:03:16;102250.19;;;46.61;0.77
77047;BME280;65977;56.380;44.022;2023-04-08T07:05:43;102251.91;;;46.36;0.22
77047;BME280;65977;56.380;44.022;2023-04-08T07:08:10;102244.50;;;46.32;0.93
77047;BME280;65977;56.380;44.022;2023-04-08T07:10:39;102237.59;;;46.38;0.92
77047;BME280;65977;56.380;44.022;2023-04-08T07:13:07;102247.44;;;46.53;0.72
77047;BME280;65977;56.380;44.022;2023-04-08T07:15:35;102240.81;;;46.74;0.51
77047;BME280;65977;56.380;44.022;2023-04-08T07:18:02;102238.38;;;47.02;0.78
77047;BME280;65977;56.380;44.022;2023-04-08T07:20:30;102243.78;;;47.16;0.62
77047;BME280;65977;56.380;44.022;2023-04-08T07:22:57;102237.13;;;47.29;0.37
77047;BME280;65977;56.380;44.022;2023-04-08T07:25:24;102230.13;;;47.35;0.26
77047;BME280;65977;56.380;44.022;2023-04-08T07:27:52;102243.78;;;47.45;0.55
77047;BME280;65977;56.380;44.022;2023-04-08T07:30:19;102241.47;;;47.47;0.35
77047;BME280;65977;56.380;44.022;2023-04-08T07:32:46;102236.34;;;47.49;0.61
77047;BME280;65977;56.380;44.022;2023-04-08T07:35:17;102248.47;;;47.62;0.15
77047;BME280;65977;56.380;44.022;2023-04-08T07:37:50;102237.25;;;47.62;0.57
77047;BME280;65977;56.380;44.022;2023-04-08T07:40:18;102234.59;;;47.65;0.38
77047;BME280;65977;56.380;44.022;2023-04-08T07:42:45;102233.28;;;47.83;0.06
77047;BME280;65977;56.380;44.022;2023-04-08T07:45:12;102234.81;;;48.13;0.25
77047;BME280;65977;56.380;44.022;2023-04-08T07:47:40;102235.16;;;48.12;0.15
77047;BME280;65977;56.380;44.022;2023-04-08T07:50:07;102228.88;;;48.15;0.00
77047;BME280;65977;56.380;44.022;2023-04-08T07:52:34;102231.34;;;48.16;0.35
77047;BME280;65977;56.380;44.022;2023-04-08T07:55:01;102224.63;;;48.30;0.00
77047;BME280;65977;56.380;44.022;2023-04-08T07:57:29;102209.59;;;48.46;0.00
77047;BME280;65977;56.380;44.022;2023-04-08T07:59:56;102211.16;;;48.80;0.06
77047;BME280;65977;56.380;44.022;2023-04-08T08:02:23;102211.75;;;48.86;0.00
77047;BME280;65977;56.380;44.022;2023-04-08T08:04:51;102214.72;;;49.01;0.00
77047;BME280;65977;56.380;44.022;2023-04-08T08:07:18;102215.50;;;49.14;0.00
77047;BME280;65977;56.380;44.022;2023-04-08T08:09:45;102207.31;;;49.09;0.00
77047;BME280;65977;56.380;44.022;2023-04-08T08:12:12;102215.38;;;49.10;0.11
77047;BME280;65977;56.380;44.022;2023-04-08T08:14:39;102210.13;;;49.09;0.00
77047;BME280;65977;56.380;44.022;2023-04-08T08:17:06;102199.47;;;49.14;0.05
77047;BME280;65977;56.380;44.022;2023-04-08T08:19:33;102206.72;;;49.15;0.00
77047;BME280;65977;56.380;44.022;2023-04-08T08:22:00;102203.81;;;49.24;0.00
77047;BME280;65977;56.380;44.022;2023-04-08T08:24:27;102203.47;;;49.37;0.00
77047;BME280;65977;56.380;44.022;2023-04-08T08:26:54;102199.53;;;49.54;0.00
77047;BME280;65977;56.380;44.022;2023-04-08T08:29:21;102205.13;;;49.66;0.00
77047;BME280;65977;56.380;44.022;2023-04-08T08:31:48;102194.91;;;49.74;0.00
77047;BME280;65977;56.380;44.022;2023-04-08T08:34:15;102214.50;;;49.70;0.00
77047;BME280;65977;56.380;44.022;2023-04-08T08:36:43;102198.91;;;49.73;0.00
77047;BME280;65977;56.380;44.022;2023-04-08T08:39:10;102205.31;;;49.58;0.00
77047;BME280;65977;56.380;44.022;2023-04-08T08:41:37;102201.41;;;49.62;0.00
77047;BME280;65977;56.380;44.022;2023-04-08T08:44:07;102196.06;;;49.45;0.00
77047;BME280;65977;56.380;44.022;2023-04-08T08:46:35;102188.78;;;49.56;0.00
77047;BME280;65977;56.380;44.022;2023-04-08T08:49:02;102188.13;;;49.75;0.00
77047;BME280;65977;56.380;44.022;2023-04-08T08:51:30;102179.63;;;49.87;0.00
77047;BME280;65977;56.380;44.022;2023-04-08T08:54:02;102176.47;;;49.88;0.00
77047;BME280;65977;56.380;44.022;2023-04-08T08:56:32;102178.72;;;49.83;0.00
77047;BME280;65977;56.380;44.022;2023-04-08T08:59:00;102175.16;;;49.70;0.00
77047;BME280;65977;56.380;44.022;2023-04-08T09:06:35;102169.13;;;50.43;0.00
77047;BME280;65977;56.380;44.022;2023-04-08T09:09:02;102165.06;;;50.56;0.00
77047;BME280;65977;56.380;44.022;2023-04-08T09:11:31;102175.25;;;50.61;0.00
77047;BME280;65977;56.380;44.022;2023-04-08T09:13:59;102168.00;;;50.60;0.00
77047;BME280;65977;56.380;44.022;2023-04-08T09:16:26;102177.88;;;50.53;0.00
77047;BME280;65977;56.380;44.022;2023-04-08T09:19:07;102166.34;;;49.99;0.00
77047;BME280;65977;56.380;44.022;2023-04-08T09:21:38;102154.19;;;49.95;0.00
77047;BME280;65977;56.380;44.022;2023-04-08T09:24:08;102157.38;;;50.10;0.00
77047;BME280;65977;56.380;44.022;2023-04-08T09:26:36;102156.75;;;49.73;0.00
77047;BME280;65977;56.380;44.022;2023-04-08T09:29:06;102151.19;;;49.76;0.00
77047;BME280;65977;56.380;44.022;2023-04-08T09:31:55;102154.25;;;49.71;0.00
77047;BME280;65977;56.380;44.022;2023-04-08T09:34:25;102157.34;;;49.54;0.00
77047;BME280;65977;56.380;44.022;2023-04-08T09:36:53;102148.34;;;49.49;0.00
77047;BME280;65977;56.380;44.022;2023-04-08T09:39:21;102150.09;;;49.65;0.00
77047;BME280;65977;56.380;44.022;2023-04-08T09:41:50;102155.66;;;50.05;0.00
77047;BME280;65977;56.380;44.022;2023-04-08T09:44:19;102148.78;;;50.18;0.00
77047;BME280;65977;56.380;44.022;2023-04-08T09:47:00;102144.94;;;50.11;0.00
77047;BME280;65977;56.380;44.022;2023-04-08T09:52:23;102149.22;;;50.20;0.00
77047;BME280;65977;56.380;44.022;2023-04-08T09:57:29;102138.88;;;49.81;0.00
77047;BME280;65977;56.380;44.022;2023-04-08T10:00:14;102140.97;;;49.84;0.00
77047;BME280;65977;56.380;44.022;2023-04-08T10:05:23;102156.25;;;49.43;0.00
77047;BME280;65977;56.380;44.022;2023-04-08T10:07:51;102133.19;;;49.25;0.00
77047;BME280;65977;56.380;44.022;2023-04-08T10:10:18;102128.66;;;49.09;0.00
77047;BME280;65977;56.380;44.022;2023-04-08T10:12:47;102141.78;;;48.68;0.00
77047;BME280;65977;56.380;44.022;2023-04-08T10:17:52;102129.13;;;48.38;0.00
77047;BME280;65977;56.380;44.022;2023-04-08T10:20:48;102131.25;;;48.53;0.00
77047;BME280;65977;56.380;44.022;2023-04-08T10:23:17;102127.97;;;48.88;0.00
77047;BME280;65977;56.380;44.022;2023-04-08T10:25:48;102125.84;;;49.09;0.00
77047;BME280;65977;56.380;44.022;2023-04-08T10:30:46;102124.34;;;49.51;0.00
77047;BME280;65977;56.380;44.022;2023-04-08T10:33:14;102115.34;;;49.46;0.00
77047;BME280;65977;56.380;44.022;2023-04-08T10:35:44;102115.94;;;49.39;0.00
77047;BME280;65977;56.380;44.022;2023-04-08T10:38:14;102110.88;;;48.93;0.00
77047;BME280;65977;56.380;44.022;2023-04-08T10:40:43;102110.06;;;48.80;0.00
77047;BME280;65977;56.380;44.022;2023-04-08T10:43:12;102120.13;;;48.81;0.00
77047;BME280;65977;56.380;44.022;2023-04-08T10:45:41;102114.16;;;48.70;0.00
77047;BME280;65977;56.380;44.022;2023-04-08T10:50:44;102111.47;;;47.93;0.00
77047;BME280;65977;56.380;44.022;2023-04-08T10:53:11;102085.66;;;47.67;0.00
77047;BME280;65977;56.380;44.022;2023-04-08T10:55:38;102099.06;;;47.61;0.00
77047;BME280;65977;56.380;44.022;2023-04-08T10:58:09;102096.31;;;47.52;0.00
77047;BME280;65977;56.380;44.022;2023-04-08T11:00:38;102095.38;;;47.28;0.00
77047;BME280;65977;56.380;44.022;2023-04-08T11:03:08;102101.66;;;46.66;0.00
77047;BME280;65977;56.380;44.022;2023-04-08T11:05:36;102089.75;;;45.94;0.51
77047;BME280;65977;56.380;44.022;2023-04-08T11:08:04;102098.13;;;45.59;0.00
77047;BME280;65977;56.380;44.022;2023-04-08T11:10:36;102088.25;;;45.19;0.37
77047;BME280;65977;56.380;44.022;2023-04-08T11:13:07;102076.16;;;45.41;0.41
77047;BME280;65977;56.380;44.022;2023-04-08T11:15:35;102075.00;;;45.59;0.36
77047;BME280;65977;56.380;44.022;2023-04-08T11:18:04;102072.88;;;45.30;0.00
77047;BME280;65977;56.380;44.022;2023-04-08T11:20:32;102068.09;;;45.31;0.36
77047;BME280;65977;56.380;44.022;2023-04-08T11:23:02;102069.34;;;45.16;0.62
77047;BME280;65977;56.380;44.022;2023-04-08T11:25:29;102065.84;;;44.76;0.00
77047;BME280;65977;56.380;44.022;2023-04-08T11:27:57;102066.59;;;44.51;0.57
77047;BME280;65977;56.380;44.022;2023-04-08T11:30:27;102054.03;;;44.31;0.54
77047;BME280;65977;56.380;44.022;2023-04-08T11:32:56;102053.50;;;44.21;0.68
77047;BME280;65977;56.380;44.022;2023-04-08T11:35:27;102051.69;;;44.25;0.26
77047;BME280;65977;56.380;44.022;2023-04-08T11:37:56;102059.75;;;44.26;0.52
77047;BME280;65977;56.380;44.022;2023-04-08T11:40:24;102070.56;;;44.19;0.22
77047;BME280;65977;56.380;44.022;2023-04-08T11:42:52;102057.00;;;43.60;0.59
77047;BME280;65977;56.380;44.022;2023-04-08T11:45:19;102056.94;;;43.15;0.66
77047;BME280;65977;56.380;44.022;2023-04-08T11:47:47;102059.25;;;42.45;0.80
77047;BME280;65977;56.380;44.022;2023-04-08T11:50:22;102056.56;;;41.25;1.19
77047;BME280;65977;56.380;44.022;2023-04-08T11:52:50;102048.75;;;39.51;1.26
77047;BME280;65977;56.380;44.022;2023-04-08T11:55:35;102053.41;;;37.42;1.80
77047;BME280;65977;56.380;44.022;2023-04-08T11:58:03;102044.63;;;35.62;2.91
77047;BME280;65977;56.380;44.022;2023-04-08T12:00:31;102043.44;;;33.61;3.25
77047;BME280;65977;56.380;44.022;2023-04-08T12:02:58;102046.94;;;31.84;3.97
77047;BME280;65977;56.380;44.022;2023-04-08T12:05:26;102043.22;;;30.35;4.53
77047;BME280;65977;56.380;44.022;2023-04-08T12:07:54;102042.81;;;29.07;5.08
77047;BME280;65977;56.380;44.022;2023-04-08T12:10:21;102041.56;;;27.80;5.70
77047;BME280;65977;56.380;44.022;2023-04-08T12:12:50;102047.38;;;26.62;5.74
77047;BME280;65977;56.380;44.022;2023-04-08T12:15:17;102041.44;;;25.33;6.81
77047;BME280;65977;56.380;44.022;2023-04-08T12:17:44;102042.88;;;24.12;7.24
77047;BME280;65977;56.380;44.022;2023-04-08T12:20:12;102030.75;;;23.09;7.73
77047;BME280;65977;56.380;44.022;2023-04-08T12:22:39;102049.56;;;22.24;8.28
77047;BME280;65977;56.380;44.022;2023-04-08T12:25:06;102038.94;;;21.58;8.62
77047;BME280;65977;56.380;44.022;2023-04-08T12:27:33;102044.66;;;20.97;8.90
77047;BME280;65977;56.380;44.022;2023-04-08T12:30:02;102042.72;;;20.47;9.20
77047;BME280;65977;56.380;44.022;2023-04-08T12:32:30;102052.78;;;20.02;9.42
77047;BME280;65977;56.380;44.022;2023-04-08T12:34:57;102039.63;;;19.55;9.93
77047;BME280;65977;56.380;44.022;2023-04-08T12:37:24;102034.00;;;19.14;10.61
77047;BME280;65977;56.380;44.022;2023-04-08T12:39:51;102040.81;;;18.81;10.81
77047;BME280;65977;56.380;44.022;2023-04-08T12:42:18;102035.28;;;18.46;10.91
77047;BME280;65977;56.380;44.022;2023-04-08T12:44:45;102037.19;;;18.16;11.77
77047;BME280;65977;56.380;44.022;2023-04-08T12:47:12;102038.50;;;17.84;12.00
77047;BME280;65977;56.380;44.022;2023-04-08T12:49:40;102026.25;;;17.62;12.07
77047;BME280;65977;56.380;44.022;2023-04-08T12:52:09;102025.78;;;17.38;12.10
77047;BME280;65977;56.380;44.022;2023-04-08T12:54:36;102012.69;;;17.25;12.03
77047;BME280;65977;56.380;44.022;2023-04-08T12:57:03;102017.44;;;17.12;12.41
77047;BME280;65977;56.380;44.022;2023-04-08T12:59:30;102013.75;;;17.03;11.97
77047;BME280;65977;56.380;44.022;2023-04-08T13:01:59;102015.31;;;16.96;11.93
77047;BME280;65977;56.380;44.022;2023-04-08T13:04:26;102022.72;;;16.83;12.10
77047;BME280;65977;56.380;44.022;2023-04-08T13:06:53;102016.78;;;16.70;11.89
77047;BME280;65977;56.380;44.022;2023-04-08T13:09:21;102002.53;;;16.60;11.97
77047;BME280;65977;56.380;44.022;2023-04-08T13:11:48;102003.94;;;16.55;11.62
77047;BME280;65977;56.380;44.022;2023-04-08T13:14:15;102001.91;;;16.47;11.64
77047;BME280;65977;56.380;44.022;2023-04-08T13:16:43;101999.16;;;16.37;11.81
77047;BME280;65977;56.380;44.022;2023-04-08T13:19:10;102005.16;;;16.30;11.93
77047;BME280;65977;56.380;44.022;2023-04-08T13:21:37;101994.19;;;16.23;12.05